Volcan De Tindaya — ECCK — position and weather

sailwx.info

Track history (hours):
 
Tides and Currents Weather Stations Pressure Air Temp Water Temp Dewpoint Dewpoint Depression Visibility Wind Speed Wind Dir Waves Ship Positions

Volcan De Tindaya

Last reported at 2017-Sep-21 19:36 UTC. Time now 2017-Sep-23 02:27 UTC.
Position N 28°52' W 013°50'.

Length 78 m; draft 3.5 m.

Type: Passenger vessel. MMSI: 224127000.

Date/timePositionNaut miles runAvg speedWind from/ knotsBaromVisibWave heightAir tempDewpointWater temp
2017-Sep-21 19:36N 28°52' W 013°50'414.2
2017-Sep-21 19:17N 28°47' W 013°51'3 4.3
2017-Sep-21 18:37N 28°44' W 013°52'7 7.6
2017-Sep-21 17:39N 28°52' W 013°50'313.1
2017-Sep-21 17:24N 28°48' W 013°50'3 1.8
2017-Sep-21 15:39N 28°52' W 013°50'313.9
2017-Sep-21 15:24N 28°48' W 013°50'3 1.8
2017-Sep-21 13:43N 28°51' W 013°50'314.9
2017-Sep-21 13:30N 28°48' W 013°50'4 5.3
2017-Sep-21 12:48N 28°44' W 013°52'7 7.1
2017-Sep-21 11:46N 28°52' W 013°50'313.0
2017-Sep-21 11:30N 28°48' W 013°50'3 1.9
2017-Sep-21 09:41N 28°52' W 013°50'313.2
2017-Sep-21 09:26N 28°48' W 013°50'3 2.0
2017-Sep-21 07:44N 28°52' W 013°50'310.0
2017-Sep-21 07:25N 28°48' W 013°50'4 5.1
2017-Sep-21 06:35N 28°44' W 013°52'7 0.7
2017-Sep-20 19:38N 28°52' W 013°50'0 0.0
2017-Sep-20 17:54N 28°52' W 013°50'613.9
2017-Sep-20 17:29N 28°46' W 013°51'6 3.5
2017-Sep-20 15:49N 28°52' W 013°50'514.3
2017-Sep-20 15:30N 28°47' W 013°51'5 2.7
2017-Sep-20 13:49N 28°52' W 013°50'514.7
2017-Sep-20 13:29N 28°47' W 013°51'3 3.5
2017-Sep-20 12:47N 28°44' W 013°52'413.5
2017-Sep-20 12:30N 28°48' W 013°50'2 2.3
2017-Sep-20 11:37N 28°50' W 013°50'215.5
2017-Sep-20 11:30N 28°48' W 013°50'4 6.3
2017-Sep-20 10:53N 28°44' W 013°52'513.1
2017-Sep-20 10:30N 28°49' W 013°50'2 2.9
2017-Sep-20 09:44N 28°52' W 013°50'314.8
2017-Sep-20 09:30N 28°48' W 013°50'4 7.8
2017-Sep-20 09:00N 28°44' W 013°52'3 6.8
2017-Sep-20 08:30N 28°48' W 013°50'4 5.6
2017-Sep-20 07:46N 28°52' W 013°50'311.3
2017-Sep-20 07:29N 28°48' W 013°50'4 4.7
2017-Sep-20 06:36N 28°44' W 013°52'1 7.9
2017-Sep-20 06:29N 28°45' W 013°51'7 3.2
2017-Sep-20 04:29N 28°52' W 013°50'0 0.0
2017-Sep-20 03:58N 28°52' W 013°50'0 0.0
2017-Sep-20 03:27N 28°52' W 013°50'0 0.0
2017-Sep-20 03:00N 28°52' W 013°50'0 0.0
2017-Sep-20 02:21N 28°52' W 013°50'0 0.0
2017-Sep-19 22:40N 28°52' W 013°50'0 0.0
2017-Sep-19 22:21N 28°52' W 013°50'0 0.0
2017-Sep-19 22:00N 28°52' W 013°50'0 0.0
2017-Sep-19 20:42N 28°52' W 013°50'0 0.0
2017-Sep-19 20:30N 28°52' W 013°50'0 0.0
2017-Sep-19 20:00N 28°52' W 013°50'2 4.5
2017-Sep-19 19:30N 28°49' W 013°50'4 4.7
2017-Sep-19 18:43N 28°46' W 013°51'315.5
2017-Sep-19 18:30N 28°49' W 013°50'3 4.7
2017-Sep-19 17:54N 28°52' W 013°50'410.6
2017-Sep-19 17:30N 28°48' W 013°51'3 6.3
2017-Sep-19 17:00N 28°44' W 013°52'3 6.8
2017-Sep-19 16:30N 28°48' W 013°50'4 5.4
2017-Sep-19 15:45N 28°52' W 013°50'312.7
2017-Sep-19 15:30N 28°48' W 013°50'4 8.7
2017-Sep-19 15:01N 28°44' W 013°52'4 7.4
2017-Sep-19 14:28N 28°48' W 013°51'3 4.2
2017-Sep-19 13:39N 28°52' W 013°50'1 9.5
2017-Sep-19 13:30N 28°50' W 013°50'612.1
2017-Sep-19 13:00N 28°44' W 013°52'0 0.0
2017-Sep-19 12:30N 28°44' W 013°52'0 0.0
2017-Sep-19 12:00N 28°44' W 013°52'0 0.0
2017-Sep-19 11:30N 28°44' W 013°52'0 0.0
2017-Sep-19 11:00N 28°44' W 013°52'713.2
2017-Sep-19 10:30N 28°51' W 013°50'1 1.2
2017-Sep-19 09:56N 28°52' W 013°50'4 9.0
2017-Sep-19 09:30N 28°48' W 013°50'2 2.9
2017-Sep-19 08:40N 28°45' W 013°51'215.3
2017-Sep-19 08:30N 28°48' W 013°51'4 7.2
2017-Sep-19 07:58N 28°52' W 013°50'1 3.1
2017-Sep-19 07:30N 28°50' W 013°50'4 3.3
2017-Sep-19 06:23N 28°47' W 013°51'5 0.9
2017-Sep-19 00:40N 28°52' W 013°50'0 0.0
2017-Sep-19 00:26N 28°52' W 013°50'0 0.0
2017-Sep-18 22:50N 28°52' W 013°50'0 0.0
2017-Sep-18 22:15N 28°52' W 013°50'0 0.0
2017-Sep-18 20:44N 28°52' W 013°50'0 0.0
2017-Sep-18 20:31N 28°52' W 013°50'6 3.2
2017-Sep-18 18:37N 28°46' W 013°51'215.5
2017-Sep-18 18:30N 28°47' W 013°51'2 0.9
2017-Sep-18 16:33N 28°46' W 013°51'1 0.6
2017-Sep-18 14:37N 28°47' W 013°51'315.2
2017-Sep-18 14:27N 28°49' W 013°50'4 2.0
2017-Sep-18 12:39N 28°46' W 013°51'215.3
2017-Sep-18 12:30N 28°48' W 013°50'3 1.5
2017-Sep-18 10:39N 28°45' W 013°51'215.4
2017-Sep-18 10:30N 28°48' W 013°51'4 4.9
2017-Sep-18 09:40N 28°52' W 013°50'210.1
2017-Sep-18 09:30N 28°50' W 013°50'5 5.4
2017-Sep-18 08:37N 28°45' W 013°51'215.2
2017-Sep-18 08:30N 28°47' W 013°51'4 5.0
2017-Sep-18 07:37N 28°51' W 013°50'1 9.6
2017-Sep-18 07:29N 28°50' W 013°50'5 5.3
2017-Sep-18 06:29N 28°45' W 013°51'7 8.9
2017-Sep-18 05:44N 28°52' W 013°50'7 0.5
2017-Sep-17 16:46N 28°45' W 013°51'515.1
2017-Sep-17 16:28N 28°49' W 013°50'4 0.7
2017-Sep-17 10:35N 28°45' W 013°51'115.3
2017-Sep-17 10:29N 28°47' W 013°51'5 5.6
2017-Sep-17 09:37N 28°52' W 013°50'1 9.2
2017-Sep-17 09:30N 28°51' W 013°50'5 5.7
2017-Sep-17 08:32N 28°45' W 013°51'115.7
2017-Sep-17 08:29N 28°46' W 013°51'5 5.8
2017-Sep-17 07:34N 28°51' W 013°50'114.7
2017-Sep-17 07:30N 28°50' W 013°50'2 1.5
2017-Sep-17 06:15N 28°48' W 013°50'3 0.2
2017-Sep-16 18:29N 28°46' W 013°51'0 0.0
2017-Sep-16 16:27N 28°46' W 013°51'2 0.8
2017-Sep-16 13:31N 28°48' W 013°50'015.4
2017-Sep-16 13:30N 28°48' W 013°50'0 0.2
2017-Sep-16 10:15N 28°48' W 013°51'3 1.7
2017-Sep-16 08:28N 28°45' W 013°51'4 4.0
2017-Sep-16 07:26N 28°49' W 013°50'4 4.4
2017-Sep-16 06:30N 28°45' W 013°51'6 0.8
2017-Sep-15 22:51N 28°52' W 013°50'0 0.0
2017-Sep-15 22:30N 28°52' W 013°50'0 0.0
2017-Sep-15 20:16N 28°52' W 013°50'0 0.0
2017-Sep-15 19:40N 28°52' W 013°50'1 6.3
2017-Sep-15 19:29N 28°50' W 013°50'5 4.4
2017-Sep-15 18:27N 28°46' W 013°51'1 0.3
2017-Sep-15 16:35N 28°45' W 013°51'315.0
2017-Sep-15 16:24N 28°48' W 013°51'4 4.9
2017-Sep-15 15:40N 28°52' W 013°50'212.1
2017-Sep-15 15:29N 28°50' W 013°50'5 4.9
2017-Sep-15 14:33N 28°45' W 013°51'115.1
2017-Sep-15 14:28N 28°46' W 013°51'1 0.4
2017-Sep-15 12:41N 28°46' W 013°51'315.0
2017-Sep-15 12:31N 28°48' W 013°50'4 4.7
2017-Sep-15 11:45N 28°52' W 013°50'313.4
2017-Sep-15 11:31N 28°48' W 013°50'3 4.3
2017-Sep-15 10:43N 28°45' W 013°51'314.5
2017-Sep-15 10:30N 28°48' W 013°51'4 6.8
2017-Sep-15 09:58N 28°52' W 013°50'3 6.5
2017-Sep-15 09:30N 28°49' W 013°50'4 4.7
2017-Sep-15 08:41N 28°45' W 013°51'315.0
2017-Sep-15 08:30N 28°47' W 013°51'4 8.3
2017-Sep-15 08:00N 28°52' W 013°50'1 1.9
2017-Sep-15 07:31N 28°51' W 013°50'6 5.8
2017-Sep-15 06:30N 28°45' W 013°51'713.7
2017-Sep-15 06:00N 28°52' W 013°50'0 0.0
2017-Sep-15 05:30N 28°52' W 013°50'0 0.0
2017-Sep-15 05:00N 28°52' W 013°50'0 0.0
2017-Sep-15 04:30N 28°52' W 013°50'0 0.0
2017-Sep-15 01:06N 28°52' W 013°50'0 0.0
2017-Sep-15 01:00N 28°52' W 013°50'0 0.0
2017-Sep-15 00:08N 28°52' W 013°50'0 0.0
2017-Sep-14 23:53N 28°52' W 013°50'0 0.0
2017-Sep-14 19:39N 28°51' W 013°50'215.1
2017-Sep-14 19:30N 28°49' W 013°50'4 4.8
2017-Sep-14 18:41N 28°45' W 013°51'315.0
2017-Sep-14 18:30N 28°48' W 013°51'4 7.3
2017-Sep-14 18:00N 28°52' W 013°50'3 6.3
2017-Sep-14 17:30N 28°48' W 013°50'3 3.6
2017-Sep-14 16:39N 28°45' W 013°51'315.0
2017-Sep-14 16:29N 28°48' W 013°50'4 7.3
2017-Sep-14 15:58N 28°52' W 013°50'7 0.9
2017-Sep-14 08:40N 28°45' W 013°51'215.1
2017-Sep-14 08:30N 28°47' W 013°51'5 8.8
2017-Sep-14 07:59N 28°52' W 013°50'3 5.5
2017-Sep-14 07:29N 28°49' W 013°50'3 3.2
2017-Sep-14 06:26N 28°46' W 013°51'613.2
2017-Sep-14 05:59N 28°52' W 013°50'0 0.0
2017-Sep-14 05:30N 28°52' W 013°50'0 0.0
2017-Sep-14 05:00N 28°52' W 013°50'0 0.0
2017-Sep-14 04:30N 28°52' W 013°50'0 0.0
2017-Sep-14 04:00N 28°52' W 013°50'0 0.0
2017-Sep-14 03:30N 28°52' W 013°50'0 0.0
2017-Sep-14 00:52N 28°52' W 013°50'0 0.0
2017-Sep-14 00:30N 28°52' W 013°50'0 0.0
2017-Sep-13 23:26N 28°52' W 013°50'0 0.0
2017-Sep-13 22:58N 28°52' W 013°50'0 0.0
2017-Sep-13 22:30N 28°52' W 013°50'0 0.0
2017-Sep-13 21:59N 28°52' W 013°50'0 0.0
2017-Sep-13 21:30N 28°52' W 013°50'0 0.0
2017-Sep-13 20:15N 28°52' W 013°50'0 0.0
2017-Sep-13 19:47N 28°52' W 013°50'1 1.9
2017-Sep-13 19:30N 28°51' W 013°50'4 3.7
2017-Sep-13 18:21N 28°47' W 013°51'2 2.6
2017-Sep-13 17:28N 28°49' W 013°50'3 2.9
2017-Sep-13 16:27N 28°46' W 013°51'  
Track history (hours):
 
Tides and Currents Weather Stations Pressure Air Temp Water Temp Dewpoint Dewpoint Depression Visibility Wind Speed Wind Dir Waves Ship Positions

Volcan De Tindaya

Last reported at 2017-Sep-21 19:36 UTC. Time now 2017-Sep-23 02:27 UTC.
Position N 28°52' W 013°50'.

Length 78 m; draft 3.5 m.

Type: Passenger vessel. MMSI: 224127000.

Date/timePositionNaut miles runAvg speedWind from/ knotsBaromVisibWave heightAir tempDewpointWater temp
2017-Sep-21 19:36N 28°52' W 013°50'414.2
2017-Sep-21 19:17N 28°47' W 013°51'3 4.3
2017-Sep-21 18:37N 28°44' W 013°52'7 7.6
2017-Sep-21 17:39N 28°52' W 013°50'313.1
2017-Sep-21 17:24N 28°48' W 013°50'3 1.8
2017-Sep-21 15:39N 28°52' W 013°50'313.9
2017-Sep-21 15:24N 28°48' W 013°50'3 1.8
2017-Sep-21 13:43N 28°51' W 013°50'314.9
2017-Sep-21 13:30N 28°48' W 013°50'4 5.3
2017-Sep-21 12:48N 28°44' W 013°52'7 7.1
2017-Sep-21 11:46N 28°52' W 013°50'313.0
2017-Sep-21 11:30N 28°48' W 013°50'3 1.9
2017-Sep-21 09:41N 28°52' W 013°50'313.2
2017-Sep-21 09:26N 28°48' W 013°50'3 2.0
2017-Sep-21 07:44N 28°52' W 013°50'310.0
2017-Sep-21 07:25N 28°48' W 013°50'4 5.1
2017-Sep-21 06:35N 28°44' W 013°52'7 0.7
2017-Sep-20 19:38N 28°52' W 013°50'0 0.0
2017-Sep-20 17:54N 28°52' W 013°50'613.9
2017-Sep-20 17:29N 28°46' W 013°51'6 3.5
2017-Sep-20 15:49N 28°52' W 013°50'514.3
2017-Sep-20 15:30N 28°47' W 013°51'5 2.7
2017-Sep-20 13:49N 28°52' W 013°50'514.7
2017-Sep-20 13:29N 28°47' W 013°51'3 3.5
2017-Sep-20 12:47N 28°44' W 013°52'413.5
2017-Sep-20 12:30N 28°48' W 013°50'2 2.3
2017-Sep-20 11:37N 28°50' W 013°50'215.5
2017-Sep-20 11:30N 28°48' W 013°50'4 6.3
2017-Sep-20 10:53N 28°44' W 013°52'513.1
2017-Sep-20 10:30N 28°49' W 013°50'2 2.9
2017-Sep-20 09:44N 28°52' W 013°50'314.8
2017-Sep-20 09:30N 28°48' W 013°50'4 7.8
2017-Sep-20 09:00N 28°44' W 013°52'3 6.8
2017-Sep-20 08:30N 28°48' W 013°50'4 5.6
2017-Sep-20 07:46N 28°52' W 013°50'311.3
2017-Sep-20 07:29N 28°48' W 013°50'4 4.7
2017-Sep-20 06:36N 28°44' W 013°52'1 7.9
2017-Sep-20 06:29N 28°45' W 013°51'7 3.2
2017-Sep-20 04:29N 28°52' W 013°50'0 0.0
2017-Sep-20 03:58N 28°52' W 013°50'0 0.0
2017-Sep-20 03:27N 28°52' W 013°50'0 0.0
2017-Sep-20 03:00N 28°52' W 013°50'0 0.0
2017-Sep-20 02:21N 28°52' W 013°50'0 0.0
2017-Sep-19 22:40N 28°52' W 013°50'0 0.0
2017-Sep-19 22:21N 28°52' W 013°50'0 0.0
2017-Sep-19 22:00N 28°52' W 013°50'0 0.0
2017-Sep-19 20:42N 28°52' W 013°50'0 0.0
2017-Sep-19 20:30N 28°52' W 013°50'0 0.0
2017-Sep-19 20:00N 28°52' W 013°50'2 4.5
2017-Sep-19 19:30N 28°49' W 013°50'4 4.7
2017-Sep-19 18:43N 28°46' W 013°51'315.5
2017-Sep-19 18:30N 28°49' W 013°50'3 4.7
2017-Sep-19 17:54N 28°52' W 013°50'410.6
2017-Sep-19 17:30N 28°48' W 013°51'3 6.3
2017-Sep-19 17:00N 28°44' W 013°52'3 6.8
2017-Sep-19 16:30N 28°48' W 013°50'4 5.4
2017-Sep-19 15:45N 28°52' W 013°50'312.7
2017-Sep-19 15:30N 28°48' W 013°50'4 8.7
2017-Sep-19 15:01N 28°44' W 013°52'4 7.4
2017-Sep-19 14:28N 28°48' W 013°51'3 4.2
2017-Sep-19 13:39N 28°52' W 013°50'1 9.5
2017-Sep-19 13:30N 28°50' W 013°50'612.1
2017-Sep-19 13:00N 28°44' W 013°52'0 0.0
2017-Sep-19 12:30N 28°44' W 013°52'0 0.0
2017-Sep-19 12:00N 28°44' W 013°52'0 0.0
2017-Sep-19 11:30N 28°44' W 013°52'0 0.0
2017-Sep-19 11:00N 28°44' W 013°52'713.2
2017-Sep-19 10:30N 28°51' W 013°50'1 1.2
2017-Sep-19 09:56N 28°52' W 013°50'4 9.0
2017-Sep-19 09:30N 28°48' W 013°50'2 2.9
2017-Sep-19 08:40N 28°45' W 013°51'215.3
2017-Sep-19 08:30N 28°48' W 013°51'4 7.2
2017-Sep-19 07:58N 28°52' W 013°50'1 3.1
2017-Sep-19 07:30N 28°50' W 013°50'4 3.3
2017-Sep-19 06:23N 28°47' W 013°51'5 0.9
2017-Sep-19 00:40N 28°52' W 013°50'0 0.0
2017-Sep-19 00:26N 28°52' W 013°50'0 0.0
2017-Sep-18 22:50N 28°52' W 013°50'0 0.0
2017-Sep-18 22:15N 28°52' W 013°50'0 0.0
2017-Sep-18 20:44N 28°52' W 013°50'0 0.0
2017-Sep-18 20:31N 28°52' W 013°50'6 3.2
2017-Sep-18 18:37N 28°46' W 013°51'215.5
2017-Sep-18 18:30N 28°47' W 013°51'2 0.9
2017-Sep-18 16:33N 28°46' W 013°51'1 0.6
2017-Sep-18 14:37N 28°47' W 013°51'315.2
2017-Sep-18 14:27N 28°49' W 013°50'4 2.0
2017-Sep-18 12:39N 28°46' W 013°51'215.3
2017-Sep-18 12:30N 28°48' W 013°50'3 1.5
2017-Sep-18 10:39N 28°45' W 013°51'215.4
2017-Sep-18 10:30N 28°48' W 013°51'4 4.9
2017-Sep-18 09:40N 28°52' W 013°50'210.1
2017-Sep-18 09:30N 28°50' W 013°50'5 5.4
2017-Sep-18 08:37N 28°45' W 013°51'215.2
2017-Sep-18 08:30N 28°47' W 013°51'4 5.0
2017-Sep-18 07:37N 28°51' W 013°50'1 9.6
2017-Sep-18 07:29N 28°50' W 013°50'5 5.3
2017-Sep-18 06:29N 28°45' W 013°51'7 8.9
2017-Sep-18 05:44N 28°52' W 013°50'7 0.5
2017-Sep-17 16:46N 28°45' W 013°51'515.1
2017-Sep-17 16:28N 28°49' W 013°50'4 0.7
2017-Sep-17 10:35N 28°45' W 013°51'115.3
2017-Sep-17 10:29N 28°47' W 013°51'5 5.6
2017-Sep-17 09:37N 28°52' W 013°50'1 9.2
2017-Sep-17 09:30N 28°51' W 013°50'5 5.7
2017-Sep-17 08:32N 28°45' W 013°51'115.7
2017-Sep-17 08:29N 28°46' W 013°51'5 5.8
2017-Sep-17 07:34N 28°51' W 013°50'114.7
2017-Sep-17 07:30N 28°50' W 013°50'2 1.5
2017-Sep-17 06:15N 28°48' W 013°50'3 0.2
2017-Sep-16 18:29N 28°46' W 013°51'0 0.0
2017-Sep-16 16:27N 28°46' W 013°51'2 0.8
2017-Sep-16 13:31N 28°48' W 013°50'015.4
2017-Sep-16 13:30N 28°48' W 013°50'0 0.2
2017-Sep-16 10:15N 28°48' W 013°51'3 1.7
2017-Sep-16 08:28N 28°45' W 013°51'4 4.0
2017-Sep-16 07:26N 28°49' W 013°50'4 4.4
2017-Sep-16 06:30N 28°45' W 013°51'6 0.8
2017-Sep-15 22:51N 28°52' W 013°50'0 0.0
2017-Sep-15 22:30N 28°52' W 013°50'0 0.0
2017-Sep-15 20:16N 28°52' W 013°50'0 0.0
2017-Sep-15 19:40N 28°52' W 013°50'1 6.3
2017-Sep-15 19:29N 28°50' W 013°50'5 4.4
2017-Sep-15 18:27N 28°46' W 013°51'1 0.3
2017-Sep-15 16:35N 28°45' W 013°51'315.0
2017-Sep-15 16:24N 28°48' W 013°51'4 4.9
2017-Sep-15 15:40N 28°52' W 013°50'212.1
2017-Sep-15 15:29N 28°50' W 013°50'5 4.9
2017-Sep-15 14:33N 28°45' W 013°51'115.1
2017-Sep-15 14:28N 28°46' W 013°51'1 0.4
2017-Sep-15 12:41N 28°46' W 013°51'315.0
2017-Sep-15 12:31N 28°48' W 013°50'4 4.7
2017-Sep-15 11:45N 28°52' W 013°50'313.4
2017-Sep-15 11:31N 28°48' W 013°50'3 4.3
2017-Sep-15 10:43N 28°45' W 013°51'314.5
2017-Sep-15 10:30N 28°48' W 013°51'4 6.8
2017-Sep-15 09:58N 28°52' W 013°50'3 6.5
2017-Sep-15 09:30N 28°49' W 013°50'4 4.7
2017-Sep-15 08:41N 28°45' W 013°51'315.0
2017-Sep-15 08:30N 28°47' W 013°51'4 8.3
2017-Sep-15 08:00N 28°52' W 013°50'1 1.9
2017-Sep-15 07:31N 28°51' W 013°50'6 5.8
2017-Sep-15 06:30N 28°45' W 013°51'713.7
2017-Sep-15 06:00N 28°52' W 013°50'0 0.0
2017-Sep-15 05:30N 28°52' W 013°50'0 0.0
2017-Sep-15 05:00N 28°52' W 013°50'0 0.0
2017-Sep-15 04:30N 28°52' W 013°50'0 0.0
2017-Sep-15 01:06N 28°52' W 013°50'0 0.0
2017-Sep-15 01:00N 28°52' W 013°50'0 0.0
2017-Sep-15 00:08N 28°52' W 013°50'0 0.0
2017-Sep-14 23:53N 28°52' W 013°50'0 0.0
2017-Sep-14 19:39N 28°51' W 013°50'215.1
2017-Sep-14 19:30N 28°49' W 013°50'4 4.8
2017-Sep-14 18:41N 28°45' W 013°51'315.0
2017-Sep-14 18:30N 28°48' W 013°51'4 7.3
2017-Sep-14 18:00N 28°52' W 013°50'3 6.3
2017-Sep-14 17:30N 28°48' W 013°50'3 3.6
2017-Sep-14 16:39N 28°45' W 013°51'315.0
2017-Sep-14 16:29N 28°48' W 013°50'4 7.3
2017-Sep-14 15:58N 28°52' W 013°50'7 0.9
2017-Sep-14 08:40N 28°45' W 013°51'215.1
2017-Sep-14 08:30N 28°47' W 013°51'5 8.8
2017-Sep-14 07:59N 28°52' W 013°50'3 5.5
2017-Sep-14 07:29N 28°49' W 013°50'3 3.2
2017-Sep-14 06:26N 28°46' W 013°51'613.2
2017-Sep-14 05:59N 28°52' W 013°50'0 0.0
2017-Sep-14 05:30N 28°52' W 013°50'0 0.0
2017-Sep-14 05:00N 28°52' W 013°50'0 0.0
2017-Sep-14 04:30N 28°52' W 013°50'0 0.0
2017-Sep-14 04:00N 28°52' W 013°50'0 0.0
2017-Sep-14 03:30N 28°52' W 013°50'0 0.0
2017-Sep-14 00:52N 28°52' W 013°50'0 0.0
2017-Sep-14 00:30N 28°52' W 013°50'0 0.0
2017-Sep-13 23:26N 28°52' W 013°50'0 0.0
2017-Sep-13 22:58N 28°52' W 013°50'0 0.0
2017-Sep-13 22:30N 28°52' W 013°50'0 0.0
2017-Sep-13 21:59N 28°52' W 013°50'0 0.0
2017-Sep-13 21:30N 28°52' W 013°50'0 0.0
2017-Sep-13 20:15N 28°52' W 013°50'0 0.0
2017-Sep-13 19:47N 28°52' W 013°50'1 1.9
2017-Sep-13 19:30N 28°51' W 013°50'4 3.7
2017-Sep-13 18:21N 28°47' W 013°51'2 2.6
2017-Sep-13 17:28N 28°49' W 013°50'3 2.9
2017-Sep-13 16:27N 28°46' W 013°51'  

Dump ship's entire track history